Time;durP1;ratioP1;P1;durP2;ratioP2;P2;SDS_P1;SDS_P2;PMS_P1;PMS_P2;Temp;Humidity;BMP_temperature;BMP_pressure;BME280_temperature;BME280_humidity;BME280_pressure;Samples;Min_cycle;Max_cycle;Signal;HPM_P1;HPM_P2
2022/09/05 00:00:05;;;;;;;;;;;;;;;;;;5086959;28;19924;-69
2022/09/05 00:02:32;;;;;;;;;;;;;;;;;;5078349;28;20349;-69
2022/09/05 00:04:59;;;;;;;;;;;;;;;;;;5081648;28;19924;-69
2022/09/05 00:07:26;;;;;;;;;;;;;;;;;;5080141;28;19924;-69
2022/09/05 00:09:53;;;;;;;;;;;;;;;;;;5079339;28;19924;-68
2022/09/05 00:12:20;;;;;;;;;;;;;;;;;;5078049;28;19928;-69
2022/09/05 00:14:49;;;;;;;;;;;;;;;;;;5083933;28;19934;-69
2022/09/05 00:17:16;;;;;;;;;;;;;;;;;;5078446;28;20501;-69
2022/09/05 00:19:43;;;;;;;;;;;;;;;;;;5082965;28;20288;-68
2022/09/05 00:22:10;;;;;;;;;;;;;;;;;;5078694;28;19939;-69
2022/09/05 00:24:37;;;;;;;;;;;;;;;;;;5079447;28;19924;-69
2022/09/05 00:27:04;;;;;;;;;;;;;;;;;;5080079;28;20895;-69
2022/09/05 00:29:31;;;;;;;;;;;;;;;;;;5081416;28;20675;-68
2022/09/05 00:31:58;;;;;;;;;;;;;;;;;;5080571;28;19932;-69
2022/09/05 00:34:25;;;;;;;;;;;;;;;;;;5081305;28;19932;-69
2022/09/05 00:36:53;;;;;;;;;;;;;;;;;;5080188;28;19924;-69
2022/09/05 00:39:20;;;;;;;;;;;;;;;;;;5082726;28;20024;-69
2022/09/05 00:41:48;;;;;;;;;;;;;;;;;;5080837;28;20373;-69
2022/09/05 00:44:15;;;;;;;;;;;;;;;;;;5081662;28;19959;-69
2022/09/05 00:46:42;;;;;;;;;;;;;;;;;;5082583;28;19924;-69
2022/09/05 00:49:09;;;;;;;;;;;;;;;;;;5079822;28;19930;-68
2022/09/05 00:51:36;;;;;;;;;;;;;;;;;;5081671;28;19935;-69
2022/09/05 00:54:03;;;;;;;;;;;;;;;;;;5081408;28;19930;-69
2022/09/05 00:56:30;;;;;;;;;;;;;;;;;;5083822;28;20019;-68
2022/09/05 00:58:57;;;;;;;;;;;;;;;;;;5085318;28;20014;-69
2022/09/05 01:01:24;;;;;;;;;;;;;;;;;;5086161;28;19932;-68
2022/09/05 01:03:51;;;;;;;;;;;;;;;;;;5090660;28;19930;-68
2022/09/05 01:06:18;;;;;;;;;;;;;;;;;;5084812;28;19946;-69
2022/09/05 01:08:44;;;;;;;;;;;;;;;;;;5084491;28;19924;-68
2022/09/05 01:11:11;;;;;;;;;;;;;;;;;;5083848;28;19932;-68
2022/09/05 01:13:38;;;;;;;;;;;;;;;;;;5083135;28;19924;-68
2022/09/05 01:16:05;;;;;;;;;;;;;;;;;;5083379;28;19930;-69
2022/09/05 01:18:32;;;;;;;;;;;;;;;;;;5089647;28;20405;-68
2022/09/05 01:20:59;;;;;;;;;;;;;;;;;;5088015;28;20466;-68
2022/09/05 01:23:26;;;;;;;;;;;;;;;;;;5083934;28;20386;-68
2022/09/05 01:25:53;;;;;;;;;;;;;;;;;;5082594;28;20347;-68
2022/09/05 01:28:20;;;;;;;;;;;;;;;;;;5080788;28;20329;-68
2022/09/05 01:30:47;;;;;;;;;;;;;;;;;;5083067;28;19928;-69
2022/09/05 01:33:14;;;;;;;;;;;;;;;;;;5081646;28;19924;-68
2022/09/05 01:35:41;;;;;;;;;;;;;;;;;;5088628;28;19924;-68
2022/09/05 01:38:08;;;;;;;;;;;;;;;;;;5084066;28;20371;-69
2022/09/05 01:40:35;;;;;;;;;;;;;;;;;;5090420;28;19958;-69
2022/09/05 01:43:03;;;;;;;;;;;;;;;;;;5083625;28;20022;-69
2022/09/05 01:45:29;;;;;;;;;;;;;;;;;;5087567;28;19932;-69
2022/09/05 01:47:56;;;;;;;;;;;;;;;;;;5082527;28;19936;-68
2022/09/05 01:50:24;;;;;;;;;;;;;;;;;;5083274;28;20062;-68
2022/09/05 01:52:51;;;;;;;;;;;;;;;;;;5082707;28;20411;-68
2022/09/05 01:55:17;;;;;;;;;;;;;;;;;;5084320;28;19931;-68
2022/09/05 01:57:44;;;;;;;;;;;;;;;;;;5084696;28;19935;-69
2022/09/05 02:00:11;;;;;;;;;;;;;;;;;;5088388;28;19931;-68
2022/09/05 02:02:38;;;;;;;;;;;;;;;;;;5081427;28;19931;-69
2022/09/05 02:05:05;;;;;;;;;;;;;;;;;;5084505;28;19924;-69
2022/09/05 02:07:32;;;;;;;;;;;;;;;;;;5083051;28;19928;-68
2022/09/05 02:09:59;;;;;;;;;;;;;;;;;;5081331;28;19967;-69
2022/09/05 02:12:26;;;;;;;;;;;;;;;;;;5084854;28;20014;-69
2022/09/05 02:14:53;;;;;;;;;;;;;;;;;;5084938;28;20027;-69
2022/09/05 02:17:20;;;;;;;;;;;;;;;;;;5083085;28;19924;-68
2022/09/05 02:19:47;;;;;;;;;;;;;;;;;;5089117;28;20009;-69
2022/09/05 02:22:14;;;;;;;;;;;;;;;;;;5083225;28;19928;-69
2022/09/05 02:24:41;;;;;;;;;;;;;;;;;;5084145;28;19978;-69
2022/09/05 02:27:08;;;;;;;;;;;;;;;;;;5082856;28;19943;-68
2022/09/05 02:29:35;;;;;;;;;;;;;;;;;;5087596;28;19971;-69
2022/09/05 02:32:02;;;;;;;;;;;;;;;;;;5081763;28;19940;-68
2022/09/05 02:34:29;;;;;;;;;;;;;;;;;;5086741;28;20019;-69
2022/09/05 02:36:56;;;;;;;;;;;;;;;;;;5086441;28;19931;-69
2022/09/05 02:39:23;;;;;;;;;;;;;;;;;;5091867;28;19924;-69
2022/09/05 02:41:50;;;;;;;;;;;;;;;;;;5088501;28;20014;-69
2022/09/05 02:44:17;;;;;;;;;;;;;;;;;;5090660;28;19931;-69
2022/09/05 02:46:45;;;;;;;;;;;;;;;;;;5090231;28;19947;-68
2022/09/05 02:49:12;;;;;;;;;;;;;;;;;;5089457;28;20347;-67
2022/09/05 02:51:39;;;;;;;;;;;;;;;;;;5083577;28;20387;-68
2022/09/05 02:54:06;;;;;;;;;;;;;;;;;;5084034;28;20031;-68
2022/09/05 02:56:33;;;;;;;;;;;;;;;;;;5081609;28;19950;-69
2022/09/05 02:59:00;;;;;;;;;;;;;;;;;;5079327;28;19928;-69
2022/09/05 03:01:27;;;;;;;;;;;;;;;;;;5083038;28;19930;-69
2022/09/05 03:03:54;;;;;;;;;;;;;;;;;;5085411;28;19967;-69
2022/09/05 03:06:21;;;;;;;;;;;;;;;;;;5082159;28;20022;-69
2022/09/05 03:08:48;;;;;;;;;;;;;;;;;;5080130;28;20429;-69
2022/09/05 03:11:15;;;;;;;;;;;;;;;;;;5082519;28;20378;-68
2022/09/05 03:13:42;;;;;;;;;;;;;;;;;;5079691;28;19924;-68
2022/09/05 03:16:09;;;;;;;;;;;;;;;;;;5083828;28;20985;-68
2022/09/05 03:18:36;;;;;;;;;;;;;;;;;;5079289;28;20369;-68
2022/09/05 03:21:03;;;;;;;;;;;;;;;;;;5088366;28;20436;-68
2022/09/05 03:23:30;;;;;;;;;;;;;;;;;;5081461;28;20701;-68
2022/09/05 03:25:57;;;;;;;;;;;;;;;;;;5080336;28;20453;-68
2022/09/05 03:28:24;;;;;;;;;;;;;;;;;;5084211;28;20401;-69
2022/09/05 03:30:51;;;;;;;;;;;;;;;;;;5079919;28;20415;-66
2022/09/05 03:33:17;;;;;;;;;;;;;;;;;;5079448;28;20021;-68
2022/09/05 03:35:44;;;;;;;;;;;;;;;;;;5082693;28;19932;-67
2022/09/05 03:38:11;;;;;;;;;;;;;;;;;;5079258;28;20331;-68
2022/09/05 03:40:38;;;;;;;;;;;;;;;;;;5086553;28;19970;-67
2022/09/05 03:43:05;;;;;;;;;;;;;;;;;;5083553;28;19924;-68
2022/09/05 03:45:32;;;;;;;;;;;;;;;;;;5083813;28;20066;-68
2022/09/05 03:47:59;;;;;;;;;;;;;;;;;;5080739;28;20018;-68
2022/09/05 03:50:26;;;;;;;;;;;;;;;;;;5083164;28;20023;-68
2022/09/05 03:52:53;;;;;;;;;;;;;;;;;;5078864;28;19928;-67
2022/09/05 03:55:20;;;;;;;;;;;;;;;;;;5080440;28;19977;-68
2022/09/05 03:57:47;;;;;;;;;;;;;;;;;;5080477;28;19935;-68
2022/09/05 04:00:14;;;;;;;;;;;;;;;;;;5080023;28;19967;-67
2022/09/05 04:02:41;;;;;;;;;;;;;;;;;;5077110;28;19929;-68
2022/09/05 04:05:08;;;;;;;;;;;;;;;;;;5085795;28;19960;-66
2022/09/05 04:07:35;;;;;;;;;;;;;;;;;;5082885;28;20441;-68
2022/09/05 04:10:02;;;;;;;;;;;;;;;;;;5080409;28;19971;-68
2022/09/05 04:12:29;;;;;;;;;;;;;;;;;;5084268;28;20006;-68
2022/09/05 04:14:56;;;;;;;;;;;;;;;;;;5079784;28;20007;-68
2022/09/05 04:17:23;;;;;;;;;;;;;;;;;;5080309;28;19924;-68
2022/09/05 04:19:50;;;;;;;;;;;;;;;;;;5082435;28;20014;-68
2022/09/05 04:22:17;;;;;;;;;;;;;;;;;;5079426;28;19939;-68
2022/09/05 04:24:44;;;;;;;;;;;;;;;;;;5081828;28;20023;-68
2022/09/05 04:27:11;;;;;;;;;;;;;;;;;;5080074;28;19939;-68
2022/09/05 04:29:38;;;;;;;;;;;;;;;;;;5080384;28;19932;-67
2022/09/05 04:32:05;;;;;;;;;;;;;;;;;;5080343;28;19924;-68
2022/09/05 04:34:32;;;;;;;;;;;;;;;;;;5080547;28;20039;-67
2022/09/05 04:36:59;;;;;;;;;;;;;;;;;;5078028;28;19927;-67
2022/09/05 04:39:26;;;;;;;;;;;;;;;;;;5080621;28;19930;-67
2022/09/05 04:41:53;;;;;;;;;;;;;;;;;;5085486;28;19928;-67
2022/09/05 04:44:20;;;;;;;;;;;;;;;;;;5084073;28;20028;-68
2022/09/05 04:46:47;;;;;;;;;;;;;;;;;;5084684;28;20023;-68
2022/09/05 04:49:14;;;;;;;;;;;;;;;;;;5080007;28;20613;-68
2022/09/05 04:51:41;;;;;;;;;;;;;;;;;;5080328;28;19924;-68
2022/09/05 04:54:08;;;;;;;;;;;;;;;;;;5076321;28;20398;-67
2022/09/05 04:56:35;;;;;;;;;;;;;;;;;;5083828;28;20297;-68
2022/09/05 04:59:03;;;;;;;;;;;;;;;;;;5086190;28;19924;-67
2022/09/05 05:01:30;;;;;;;;;;;;;;;;;;5084399;28;19925;-67
2022/09/05 05:03:57;;;;;;;;;;;;;;;;;;5083850;28;19931;-68
2022/09/05 05:06:24;;;;;;;;;;;;;;;;;;5079856;28;19974;-67
2022/09/05 05:08:51;;;;;;;;;;;;;;;;;;5080394;28;19970;-66
2022/09/05 05:11:18;;;;;;;;;;;;;;;;;;5080414;28;20407;-68
2022/09/05 05:13:45;;;;;;;;;;;;;;;;;;5078950;28;20022;-68
2022/09/05 05:16:12;;;;;;;;;;;;;;;;;;5085376;28;20030;-66
2022/09/05 05:18:39;;;;;;;;;;;;;;;;;;5077683;28;19964;-68
2022/09/05 05:21:06;;;;;;;;;;;;;;;;;;5081636;28;20000;-68
2022/09/05 05:23:33;;;;;;;;;;;;;;;;;;5081256;28;19924;-68
2022/09/05 05:26:00;;;;;;;;;;;;;;;;;;5081077;28;19924;-66
2022/09/05 05:28:27;;;;;;;;;;;;;;;;;;5077691;28;20004;-68
2022/09/05 05:30:54;;;;;;;;;;;;;;;;;;5078801;28;20463;-68
2022/09/05 05:33:21;;;;;;;;;;;;;;;;;;5078285;28;20027;-67
2022/09/05 05:35:48;;;;;;;;;;;;;;;;;;5078181;28;19972;-68
2022/09/05 05:38:15;;;;;;;;;;;;;;;;;;5081886;28;19924;-67
2022/09/05 05:40:42;;;;;;;;;;;;;;;;;;5086070;28;20011;-67
2022/09/05 05:43:09;;;;;;;;;;;;;;;;;;5086690;28;20018;-67
2022/09/05 05:45:36;;;;;;;;;;;;;;;;;;5086631;28;20458;-68
2022/09/05 05:48:03;;;;;;;;;;;;;;;;;;5086700;28;20057;-68
2022/09/05 05:50:32;;;;;;;;;;;;;;;;;;5087024;28;19942;-68
2022/09/05 05:52:58;;;;;;;;;;;;;;;;;;5090378;28;19925;-68
2022/09/05 05:55:25;;;;;;;;;;;;;;;;;;5088551;28;20019;-67
2022/09/05 05:57:52;;;;;;;;;;;;;;;;;;5091058;28;19931;-68
2022/09/05 06:00:19;;;;;;;;;;;;;;;;;;5089148;28;20513;-67
2022/09/05 06:02:46;;;;;;;;;;;;;;;;;;5086258;28;20368;-68
2022/09/05 06:05:13;;;;;;;;;;;;;;;;;;5090261;28;20106;-67
2022/09/05 06:07:42;;;;;;;;;;;;;;;;;;5086801;28;20039;-65
2022/09/05 06:10:09;;;;;;;;;;;;;;;;;;5088782;28;19924;-65
2022/09/05 06:12:37;;;;;;;;;;;;;;;;;;5087007;28;20034;-64
2022/09/05 06:15:05;;;;;;;;;;;;;;;;;;5087679;28;20015;-64
2022/09/05 06:17:32;;;;;;;;;;;;;;;;;;5088215;28;19939;-65
2022/09/05 06:19:59;;;;;;;;;;;;;;;;;;5088094;28;19928;-65
2022/09/05 06:22:26;;;;;;;;;;;;;;;;;;5084133;28;19969;-65
2022/09/05 06:24:56;;;;;;;;;;;;;;;;;;5087212;28;19932;-66
2022/09/05 06:27:23;;;;;;;;;;;;;;;;;;5084843;28;20347;-65
2022/09/05 06:29:54;;;;;;;;;;;;;;;;;;5090801;28;19924;-66
2022/09/05 06:32:23;;;;;;;;;;;;;;;;;;5087960;28;19935;-65
2022/09/05 06:34:50;;;;;;;;;;;;;;;;;;5090471;28;20311;-66
2022/09/05 06:37:17;;;;;;;;;;;;;;;;;;5086843;28;19982;-66
2022/09/05 06:39:46;;;;;;;;;;;;;;;;;;5095016;28;19924;-66
2022/09/05 06:42:13;;;;;;;;;;;;;;;;;;5085942;28;19936;-64
2022/09/05 06:44:40;;;;;;;;;;;;;;;;;;5089034;28;19928;-65
2022/09/05 06:47:07;;;;;;;;;;;;;;;;;;5089433;28;20264;-65
2022/09/05 06:49:34;;;;;;;;;;;;;;;;;;5086668;28;20305;-65
2022/09/05 06:52:01;;;;;;;;;;;;;;;;;;5087920;28;20098;-65
2022/09/05 06:54:28;;;;;;;;;;;;;;;;;;5092484;28;20351;-65
2022/09/05 06:56:55;;;;;;;;;;;;;;;;;;5090394;28;20379;-65
2022/09/05 06:59:22;;;;;;;;;;;;;;;;;;5093685;28;19924;-65
2022/09/05 07:01:50;;;;;;;;;;;;;;;;;;5084242;28;19924;-66
2022/09/05 07:04:17;;;;;;;;;;;;;;;;;;5089797;28;20401;-64
2022/09/05 07:06:44;;;;;;;;;;;;;;;;;;5094663;28;20357;-66
2022/09/05 07:09:11;;;;;;;;;;;;;;;;;;5093443;28;20375;-65
2022/09/05 07:11:38;;;;;;;;;;;;;;;;;;5085127;28;19930;-66
2022/09/05 07:14:06;;;;;;;;;;;;;;;;;;5083496;28;19931;-66
2022/09/05 07:16:33;;;;;;;;;;;;;;;;;;5086104;28;19947;-65
2022/09/05 07:19:00;;;;;;;;;;;;;;;;;;5084963;28;19974;-66
2022/09/05 07:21:31;;;;;;;;;;;;;;;;;;5089303;28;20019;-65
2022/09/05 07:23:59;;;;;;;;;;;;;;;;;;5087955;28;19956;-66
2022/09/05 07:26:26;;;;;;;;;;;;;;;;;;5087663;28;19977;-66
2022/09/05 07:28:53;;;;;;;;;;;;;;;;;;5087892;28;19982;-66
2022/09/05 07:31:21;;;;;;;;;;;;;;;;;;5087069;28;20395;-65
2022/09/05 07:33:48;;;;;;;;;;;;;;;;;;5090333;28;19951;-66
2022/09/05 07:36:15;;;;;;;;;;;;;;;;;;5089678;28;20015;-66
2022/09/05 07:38:42;;;;;;;;;;;;;;;;;;5085623;28;19931;-66
2022/09/05 07:41:09;;;;;;;;;;;;;;;;;;5079827;28;20387;-66
2022/09/05 07:43:38;;;;;;;;;;;;;;;;;;5083316;28;19946;-66
2022/09/05 07:46:05;;;;;;;;;;;;;;;;;;5081767;28;19928;-66
2022/09/05 07:48:36;;;;;;;;;;;31.60;85.30;;;;;;5072787;28;20319;-65
2022/09/05 07:51:04;;;;;;;;;;;31.50;76.10;;;;;;5083298;28;20369;-66
2022/09/05 07:53:31;;;;;;;;;;;31.10;71.00;;;;;;5082689;28;20007;-66
2022/09/05 07:56:01;;;;;;;;;;;32.00;66.10;;;;;;5084000;28;19924;-63
2022/09/05 07:58:33;;;;;;;;;;;32.30;57.80;;;;;;5080132;28;19932;-64
2022/09/05 08:01:00;;;;;;;;;;;31.90;54.50;;;;;;5073935;28;20022;-64
2022/09/05 08:03:28;;;;;;;;;;;30.60;47.50;;;;;;5087015;28;20027;-64
2022/09/05 08:05:58;;;;;;;;;;;31.30;46.40;;;;;;5087263;28;20275;-64
2022/09/05 08:08:28;;;;;;;;;;;32.70;44.00;;;;;;5083985;28;19928;-64
2022/09/05 08:10:57;;;;;;;;;;;33.90;40.00;;;;;;5087816;28;19928;-64
2022/09/05 08:13:26;;;;;;;;;;;34.30;34.90;;;;;;5082071;28;19965;-66
2022/09/05 08:15:54;;;;;;;;;;;34.20;32.00;;;;;;5085237;28;19928;-67
2022/09/05 08:18:23;;;;;;;;;;;33.80;31.10;;;;;;5087556;28;20007;-66
2022/09/05 08:20:51;;;;;;;;;;;33.40;30.10;;;;;;5088614;28;20662;-66
2022/09/05 08:23:26;;;;;;;;;;;32.90;30.20;;;;;;5083925;28;19978;-66
2022/09/05 08:25:57;;;;;;;;;;;32.90;29.70;;;;;;5084688;28;19924;-66
2022/09/05 08:28:26;;;;;;;;;;;33.00;29.10;;;;;;5083854;28;20403;-66
2022/09/05 08:30:59;;;;;;;;;;;33.30;28.50;;;;;;5094474;28;20003;-66
2022/09/05 08:33:31;;;;;;;;;;;33.00;28.00;;;;;;5089044;28;19971;-65
2022/09/05 08:36:00;;;;;;;;;;;32.70;28.70;;;;;;5085967;28;19931;-66
2022/09/05 08:38:29;;;;;;;;;;;33.30;27.70;;;;;;5084330;28;20010;-66
2022/09/05 08:41:01;;;;;;;;;;;34.20;26.80;;;;;;5090498;28;20370;-66
2022/09/05 08:43:30;;;;;;;;;;;34.80;25.10;;;;;;5085369;28;20018;-66
2022/09/05 08:45:59;;;;;;;;;;;34.90;26.30;;;;;;5085984;28;20340;-65
2022/09/05 08:48:33;;;;;;;;;;;34.60;29.20;;;;;;5089129;28;20309;-67
2022/09/05 08:51:15;;;;;;;;;;;34.40;29.80;;;;;;5085998;28;19924;-66
2022/09/05 08:53:51;;;;;;;;;;;34.70;28.80;;;;;;5084811;28;20016;-65
2022/09/05 08:56:21;;;;;;;;;;;34.50;28.70;;;;;;5080601;28;19930;-66
2022/09/05 08:58:55;;;;;;;;;;;34.30;28.90;;;;;;5086408;28;20386;-65
2022/09/05 09:01:27;;;;;;;;;;;34.50;28.70;;;;;;5095472;28;20015;-66
2022/09/05 09:04:05;;;;;;;;;;;34.70;28.30;;;;;;5087008;28;19924;-65
2022/09/05 09:06:50;;;;;;;;;;;35.00;31.80;;;;;;5086635;28;20011;-66
2022/09/05 09:09:24;;;;;;;;;;;34.70;32.30;;;;;;5088399;28;19975;-65
2022/09/05 09:11:53;;;;;;;;;;;34.90;31.50;;;;;;5081874;28;19924;-65
2022/09/05 09:14:25;;;;;;;;;;;34.40;31.90;;;;;;5088326;28;19974;-65
2022/09/05 09:16:58;;;;;;;;;;;35.10;31.80;;;;;;5088000;28;19924;-66
2022/09/05 09:19:24;;;;;;;;;;;;;;;;;;5087192;28;20011;-66
2022/09/05 09:21:51;;;;;;;;;;;;;;;;;;5083418;28;20022;-65
2022/09/05 09:24:18;;;;;;;;;;;;;;;;;;5090778;28;19963;-65
2022/09/05 09:26:45;;;;;;;;;;;;;;;;;;5093604;28;19943;-65
2022/09/05 09:29:12;;;;;;;;;;;;;;;;;;5090050;28;19999;-65
2022/09/05 09:31:39;;;;;;;;;;;;;;;;;;5092075;28;19923;-65
2022/09/05 09:34:07;;;;;;;;;;;;;;;;;;5090568;28;19971;-65
2022/09/05 09:36:34;;;;;;;;;;;;;;;;;;5093617;28;19924;-64
2022/09/05 09:39:01;;;;;;;;;;;;;;;;;;5091937;28;19924;-66
2022/09/05 09:41:28;;;;;;;;;;;;;;;;;;5088727;28;19924;-65
2022/09/05 09:44:31;;;;;;;;;;;33.60;45.20;;;;;;5086867;28;19928;-65
2022/09/05 09:46:58;;;;;;;;;;;33.70;45.50;;;;;;5080529;28;19942;-65
2022/09/05 09:49:26;;;;;;;;;;;;;;;;;;5092151;28;19931;-66
2022/09/05 09:52:11;;;;;;;;;;;34.50;43.10;;;;;;5091559;28;19924;-65
2022/09/05 09:55:10;;;;;;;;;;;34.50;42.70;;;;;;5089969;28;19924;-65
2022/09/05 09:57:56;;;;;;;;;;;33.20;42.20;;;;;;5091346;28;19924;-66
2022/09/05 10:00:24;;;;;;;;;;;31.40;44.30;;;;;;5103628;28;20002;-65
2022/09/05 10:03:01;;;;;;;;;;;30.10;47.20;;;;;;5087759;28;19930;-65
2022/09/05 10:05:38;;;;;;;;;;;29.40;47.90;;;;;;5086937;28;20299;-65
2022/09/05 10:08:05;;;;;;;;;;;;;;;;;;5087086;28;19924;-65
2022/09/05 10:10:32;;;;;;;;;;;;;;;;;;5087380;28;20015;-65
2022/09/05 10:12:59;;;;;;;;;;;;;;;;;;5089632;28;20013;-65
2022/09/05 10:15:26;;;;;;;;;;;;;;;;;;5090099;28;20027;-65
2022/09/05 10:17:53;;;;;;;;;;;;;;;;;;5085835;28;19954;-65
2022/09/05 10:20:20;;;;;;;;;;;;;;;;;;5092340;28;20305;-64
2022/09/05 10:22:47;;;;;;;;;;;;;;;;;;5088231;28;20024;-64
2022/09/05 10:25:14;;;;;;;;;;;;;;;;;;5088841;28;20302;-65
2022/09/05 10:27:41;;;;;;;;;;;;;;;;;;5088159;28;19927;-65
2022/09/05 10:30:08;;;;;;;;;;;;;;;;;;5087612;28;19924;-65
2022/09/05 10:32:37;;;;;;;;;;;;;;;;;;5082787;28;21270;-65
2022/09/05 10:35:04;;;;;;;;;;;;;;;;;;5088566;28;19935;-65
2022/09/05 10:37:31;;;;;;;;;;;;;;;;;;5087261;28;20448;-66
2022/09/05 10:39:58;;;;;;;;;;;;;;;;;;5090535;28;20409;-65
2022/09/05 10:42:25;;;;;;;;;;;;;;;;;;5082340;28;20367;-65
2022/09/05 10:44:52;;;;;;;;;;;;;;;;;;5075763;28;19936;-65
2022/09/05 10:47:19;;;;;;;;;;;;;;;;;;5092387;28;20027;-65
2022/09/05 10:49:46;;;;;;;;;;;;;;;;;;5088941;28;20014;-65
2022/09/05 10:52:13;;;;;;;;;;;;;;;;;;5089072;28;19928;-65
2022/09/05 10:54:40;;;;;;;;;;;;;;;;;;5089030;28;19936;-65
2022/09/05 10:57:07;;;;;;;;;;;;;;;;;;5089237;28;19943;-65
2022/09/05 10:59:34;;;;;;;;;;;;;;;;;;5088977;28;20037;-65
2022/09/05 11:02:02;;;;;;;;;;;;;;;;;;5097278;28;20291;-65
2022/09/05 11:04:29;;;;;;;;;;;;;;;;;;5089007;28;20019;-66
2022/09/05 11:06:56;;;;;;;;;;;;;;;;;;5090347;28;20294;-65
2022/09/05 11:09:23;;;;;;;;;;;;;;;;;;5093243;28;19990;-65
2022/09/05 11:11:50;;;;;;;;;;;;;;;;;;5093759;28;19971;-65
2022/09/05 11:14:18;;;;;;;;;;;;;;;;;;5094704;28;19981;-65
2022/09/05 11:16:45;;;;;;;;;;;;;;;;;;5089642;28;22002;-66
2022/09/05 11:19:12;;;;;;;;;;;;;;;;;;5088962;28;20054;-66
2022/09/05 11:21:39;;;;;;;;;;;;;;;;;;5088510;28;20345;-65
2022/09/05 11:24:06;;;;;;;;;;;;;;;;;;5090135;28;20332;-66
2022/09/05 11:26:33;;;;;;;;;;;;;;;;;;5090641;28;20359;-64
2022/09/05 11:29:00;;;;;;;;;;;;;;;;;;5091896;28;19932;-66
2022/09/05 11:31:27;;;;;;;;;;;;;;;;;;5091583;28;19989;-66
2022/09/05 11:33:54;;;;;;;;;;;;;;;;;;5091920;28;19924;-65
2022/09/05 11:36:21;;;;;;;;;;;;;;;;;;5088764;28;19924;-65
2022/09/05 11:38:48;;;;;;;;;;;;;;;;;;5089278;28;19969;-64
2022/09/05 11:41:15;;;;;;;;;;;;;;;;;;5090525;28;20442;-65
2022/09/05 11:43:42;;;;;;;;;;;;;;;;;;5088755;28;19924;-68
2022/09/05 11:46:09;;;;;;;;;;;;;;;;;;5086290;28;20487;-65
2022/09/05 11:48:36;;;;;;;;;;;;;;;;;;5088189;28;19956;-66
2022/09/05 11:51:03;;;;;;;;;;;;;;;;;;5090809;28;20006;-65
2022/09/05 11:53:30;;;;;;;;;;;;;;;;;;5087745;28;19928;-65
2022/09/05 11:55:57;;;;;;;;;;;;;;;;;;5086590;28;20023;-65
2022/09/05 11:58:24;;;;;;;;;;;;;;;;;;5088547;28;19936;-66
2022/09/05 12:00:51;;;;;;;;;;;;;;;;;;5090656;28;20539;-65
2022/09/05 12:03:18;;;;;;;;;;;;;;;;;;5093525;28;19924;-65
2022/09/05 12:05:51;;;;;;;;;;;;;;;;;;5093302;28;19924;-65
2022/09/05 12:08:19;;;;;;;;;;;;;;;;;;5086481;28;20306;-65
2022/09/05 12:10:46;;;;;;;;;;;;;;;;;;5088969;28;20045;-66
2022/09/05 12:13:16;;;;;;;;;;;;;;;;;;5084788;28;20321;-65
2022/09/05 12:15:45;;;;;;;;;;;;;;;;;;5082311;28;19924;-65
2022/09/05 12:18:12;;;;;;;;;;;;;;;;;;5085256;28;20322;-65
2022/09/05 12:20:39;;;;;;;;;;;;;;;;;;5082475;28;20020;-65
2022/09/05 12:23:06;;;;;;;;;;;;;;;;;;5084299;28;20014;-65
2022/09/05 12:25:33;;;;;;;;;;;;;;;;;;5089425;28;19963;-65
2022/09/05 12:28:05;;;;;;;;;;;;;;;;;;5088862;28;19924;-65
2022/09/05 12:30:33;;;;;;;;;;;;;;;;;;5084127;28;19924;-65
2022/09/05 12:33:00;;;;;;;;;;;;;;;;;;5084190;28;19924;-65
2022/09/05 12:35:27;;;;;;;;;;;;;;;;;;5092097;28;20031;-65
2022/09/05 12:37:54;;;;;;;;;;;;;;;;;;5083836;28;19924;-64
2022/09/05 12:40:21;;;;;;;;;;;;;;;;;;5086903;28;20007;-65
2022/09/05 12:42:49;;;;;;;;;;;;;;;;;;5086930;28;20097;-66
2022/09/05 12:45:17;;;;;;;;;;;;;;;;;;5090240;28;19924;-66
2022/09/05 12:47:44;;;;;;;;;;;;;;;;;;5088927;28;19930;-66
2022/09/05 12:50:12;;;;;;;;;;;;;;;;;;5088069;28;20010;-66
2022/09/05 12:52:39;;;;;;;;;;;;;;;;;;5084855;28;19928;-65
2022/09/05 12:55:06;;;;;;;;;;;;;;;;;;5090459;28;19924;-66
2022/09/05 12:57:33;;;;;;;;;;;;;;;;;;5097893;28;19924;-64
2022/09/05 13:00:00;;;;;;;;;;;;;;;;;;5094062;28;20028;-64
2022/09/05 13:02:27;;;;;;;;;;;;;;;;;;5087519;28;19935;-65
2022/09/05 13:04:57;;;;;;;;;;;;;;;;;;5095666;28;20015;-65
2022/09/05 13:07:26;;;;;;;;;;;;;;;;;;5083808;28;19924;-66
2022/09/05 13:09:55;;;;;;;;;;;;;;;;;;5095428;28;20439;-65
2022/09/05 13:12:23;;;;;;;;;;;;;;;;;;5088874;28;19956;-66
2022/09/05 13:14:51;;;;;;;;;;;;;;;;;;5086120;28;20405;-65
2022/09/05 13:17:18;;;;;;;;;;;;;;;;;;5088965;28;19924;-64
2022/09/05 13:19:50;;;;;;;;;;;;;;;;;;5096111;28;20007;-64
2022/09/05 13:22:17;;;;;;;;;;;;;;;;;;5092847;28;20386;-65
2022/09/05 13:24:44;;;;;;;;;;;;;;;;;;5092268;28;19938;-66
2022/09/05 13:27:12;;;;;;;;;;;;;;;;;;5093801;28;19928;-65
2022/09/05 13:29:51;;;;;;;;;;;;;;;;;;5091832;28;20058;-65
2022/09/05 13:32:18;;;;;;;;;;;;;;;;;;5086921;28;19930;-66
2022/09/05 13:34:45;;;;;;;;;;;;;;;;;;5091895;28;20023;-66
2022/09/05 13:37:12;;;;;;;;;;;;;;;;;;5095938;28;19929;-66
2022/09/05 13:39:39;;;;;;;;;;;;;;;;;;5095270;28;20030;-66
2022/09/05 13:42:08;;;;;;;;;;;;;;;;;;5094916;28;19928;-66
2022/09/05 13:44:36;;;;;;;;;;;;;;;;;;5093355;28;19946;-66
2022/09/05 13:47:04;;;;;;;;;;;;;;;;;;5093784;28;20275;-66
2022/09/05 13:49:31;;;;;;;;;;;;;;;;;;5089580;28;20204;-65
2022/09/05 13:51:59;;;;;;;;;;;;;;;;;;5095568;28;19932;-66
2022/09/05 13:54:26;;;;;;;;;;;;;;;;;;5095702;28;20018;-66
2022/09/05 13:56:53;;;;;;;;;;;;;;;;;;5094520;28;20026;-65
2022/09/05 13:59:20;;;;;;;;;;;;;;;;;;5095801;28;19932;-66
2022/09/05 14:01:47;;;;;;;;;;;;;;;;;;5092596;28;19924;-66
2022/09/05 14:04:14;;;;;;;;;;;;;;;;;;5089784;28;19924;-66
2022/09/05 14:06:46;;;;;;;;;;;;;;;;;;5095723;28;19930;-65
2022/09/05 14:09:13;;;;;;;;;;;;;;;;;;5080863;28;20386;-65
2022/09/05 14:11:40;;;;;;;;;;;;;;;;;;5085488;28;19931;-65
2022/09/05 14:14:09;;;;;;;;;;;;;;;;;;5082490;28;20023;-65
2022/09/05 14:16:36;;;;;;;;;;;;;;;;;;5091411;28;20344;-65
2022/09/05 14:21:47;;;;;;;;;;;;;;;;;;5088599;28;19920;-65
2022/09/05 14:24:14;;;;;;;;;;;;;;;;;;5089079;28;19924;-65
2022/09/05 14:26:41;;;;;;;;;;;;;;;;;;5090895;28;20689;-66
2022/09/05 14:29:08;;;;;;;;;;;;;;;;;;5087021;28;19932;-64
2022/09/05 14:31:35;;;;;;;;;;;;;;;;;;5094772;28;19967;-66
2022/09/05 14:34:02;;;;;;;;;;;;;;;;;;5088786;28;19931;-65
2022/09/05 14:36:29;;;;;;;;;;;;;;;;;;5089371;28;20018;-65
2022/09/05 14:38:56;;;;;;;;;;;;;;;;;;5088495;28;19924;-66
2022/09/05 14:41:23;;;;;;;;;;;;;;;;;;5089451;28;19969;-65
2022/09/05 14:43:50;;;;;;;;;;;;;;;;;;5092151;28;19928;-65
2022/09/05 14:46:18;;;;;;;;;;;;;;;;;;5091200;28;20007;-66
2022/09/05 14:48:45;;;;;;;;;;;;;;;;;;5087035;28;19927;-65
2022/09/05 14:51:12;;;;;;;;;;;;;;;;;;5089858;28;20029;-65
2022/09/05 14:53:39;;;;;;;;;;;;;;;;;;5088996;28;19935;-65
2022/09/05 14:56:06;;;;;;;;;;;;;;;;;;5091870;28;19930;-66
2022/09/05 14:58:33;;;;;;;;;;;;;;;;;;5089763;28;19931;-66
2022/09/05 15:01:00;;;;;;;;;;;;;;;;;;5092757;28;19924;-65
2022/09/05 15:03:27;;;;;;;;;;;;;;;;;;5085004;28;19939;-64
2022/09/05 15:05:54;;;;;;;;;;;;;;;;;;5090245;28;20367;-65
2022/09/05 15:08:21;;;;;;;;;;;;;;;;;;5085309;28;19963;-65
2022/09/05 15:10:49;;;;;;;;;;;;;;;;;;5089140;28;20016;-65
2022/09/05 15:13:16;;;;;;;;;;;;;;;;;;5092742;28;19954;-64
2022/09/05 15:15:44;;;;;;;;;;;;;;;;;;5090153;28;19924;-65
2022/09/05 15:18:11;;;;;;;;;;;;;;;;;;5090456;28;19924;-65
2022/09/05 15:20:38;;;;;;;;;;;;;;;;;;5088106;28;19931;-65
2022/09/05 15:23:05;;;;;;;;;;;;;;;;;;5091432;28;19930;-66
2022/09/05 15:25:32;;;;;;;;;;;;;;;;;;5094718;28;20014;-65
2022/09/05 15:27:59;;;;;;;;;;;;;;;;;;5096678;28;19931;-66
2022/09/05 15:30:26;;;;;;;;;;;;;;;;;;5083736;28;19981;-66
2022/09/05 15:32:53;;;;;;;;;;;;;;;;;;5075028;28;19932;-66
2022/09/05 15:35:20;;;;;;;;;;;;;;;;;;5087846;28;19924;-65
2022/09/05 15:37:48;;;;;;;;;;;;;;;;;;5081110;28;19925;-65
2022/09/05 15:40:15;;;;;;;;;;;;;;;;;;5086667;28;19935;-65
2022/09/05 15:42:42;;;;;;;;;;;;;;;;;;5088098;28;19931;-66
2022/09/05 15:45:09;;;;;;;;;;;;;;;;;;5083753;28;19924;-65
2022/09/05 15:47:37;;;;;;;;;;;;;;;;;;5086711;28;20027;-65
2022/09/05 15:50:04;;;;;;;;;;;;;;;;;;5087940;28;19935;-66
2022/09/05 15:52:31;;;;;;;;;;;;;;;;;;5080798;28;20295;-66
2022/09/05 15:54:58;;;;;;;;;;;;;;;;;;5077419;28;19930;-66
2022/09/05 15:57:25;;;;;;;;;;;;;;;;;;5080841;28;20008;-66
2022/09/05 15:59:52;;;;;;;;;;;;;;;;;;5087776;28;19932;-66
2022/09/05 16:02:19;;;;;;;;;;;;;;;;;;5087018;28;19924;-65
2022/09/05 16:04:46;;;;;;;;;;;;;;;;;;5085185;28;20010;-66
2022/09/05 16:07:13;;;;;;;;;;;;;;;;;;5082113;28;20015;-66
2022/09/05 16:09:40;;;;;;;;;;;;;;;;;;5089200;28;19935;-66
2022/09/05 16:12:07;;;;;;;;;;;;;;;;;;5088996;28;19924;-67
2022/09/05 16:14:35;;;;;;;;;;;;;;;;;;5086684;28;19931;-66
2022/09/05 16:17:02;;;;;;;;;;;;;;;;;;5079435;28;20481;-66
2022/09/05 16:19:29;;;;;;;;;;;;;;;;;;5087444;28;20343;-66
2022/09/05 16:21:56;;;;;;;;;;;;;;;;;;5088239;28;20025;-66
2022/09/05 16:24:23;;;;;;;;;;;;;;;;;;5090053;28;20021;-66
2022/09/05 16:26:51;;;;;;;;;;;;;;;;;;5088327;28;19977;-66
2022/09/05 16:29:19;;;;;;;;;;;;;;;;;;5088465;28;19930;-67
2022/09/05 16:31:46;;;;;;;;;;;;;;;;;;5094507;28;20321;-67